Allen, Alabama
Current Conditions -  °F | °C
As of 9:53 PM on Saturday 22 Nov 2014 (Local Time) from KGZH Reporting Station
Light Rain Light Rain  
Wind Chill: 61°   Ceiling: 700
Heat Index: 61°   Visibility: 10mi
Dew Point: 58°   Wind: 10mph
Humidity: 90%   Direction: 100°E
Pressure: 30.07"   Gusts: NA
Location:  31.6°N, 87.71°W
Report Text: KGZH 230353Z AUTO 10009KT 10SM -RA BKN007 BKN014 OVC037 16/14 A3007 RMK AO2 RAE03B26 SLP180 P0001 T01610144
Loading
Personal Weather Stations






























Interactive Weather Map New forecast layout! Learn more

10-Day Weather Forecast

Advertisements
Track Severe Weather on mobile